Rocky Butte, Washington
Current Conditions -  °F | °C
As of 9:36 PM on Wednesday 26 Nov 2014 (Local Time) from KOMK Reporting Station
Haze Haze  
Wind Chill: 34°   Ceiling: 300
Heat Index: 34°   Visibility: 0.75mi
Dew Point: 33°   Wind: 0mph
Humidity: 96%   Direction: NA
Pressure: 29.97"   Gusts: NA
Location:  48.2133°N, 119.829°W
Report Text: KOMK 270536Z AUTO 00000KT 3/4SM BR VV003 01/01 A2997 RMK AO2 T00110006
Loading
Personal Weather Stations






























Interactive Weather Map New forecast layout! Learn more

10-Day Weather Forecast

Advertisements
Track Severe Weather on mobile